createdAt,value
2022-08-12T00:02:05.696Z,56.15
2022-08-12T00:04:56.646Z,56.51
2022-08-12T00:07:46.489Z,56.63
2022-08-12T00:10:35.823Z,55.72
2022-08-12T00:13:26.151Z,55.91
2022-08-12T00:16:16.094Z,55.89
2022-08-12T00:19:06.553Z,55.85
2022-08-12T00:21:57.078Z,55.91
2022-08-12T00:24:47.240Z,56.00
2022-08-12T00:27:44.129Z,55.47
2022-08-12T00:30:34.369Z,55.50
2022-08-12T00:33:27.538Z,55.10
2022-08-12T00:36:32.413Z,54.59
2022-08-12T00:39:25.650Z,54.95
2022-08-12T00:42:12.602Z,55.09
2022-08-12T00:44:48.280Z,55.32
2022-08-12T00:47:24.079Z,54.84
2022-08-12T00:49:58.339Z,54.82
2022-08-12T00:52:30.121Z,54.98
2022-08-12T00:55:05.624Z,55.62
2022-08-12T00:57:38.341Z,55.97
2022-08-12T01:00:11.293Z,56.52
2022-08-12T01:02:46.702Z,56.85
2022-08-12T01:05:38.882Z,56.80
2022-08-12T01:08:29.326Z,57.01
2022-08-12T01:11:19.374Z,56.54
2022-08-12T01:13:52.218Z,55.73
2022-08-12T01:16:24.188Z,55.85
2022-08-12T01:18:58.335Z,56.28
2022-08-12T01:21:51.733Z,55.65
2022-08-12T01:24:52.183Z,56.25
2022-08-12T01:27:25.714Z,56.04
2022-08-12T01:30:01.095Z,55.88
2022-08-12T01:32:37.803Z,55.85
2022-08-12T01:35:11.642Z,56.11
2022-08-12T01:37:49.814Z,56.73
2022-08-12T01:40:35.012Z,58.08
2022-08-12T01:43:11.184Z,57.86
2022-08-12T01:45:54.560Z,57.79
2022-08-12T01:48:50.601Z,57.87
2022-08-12T01:52:15.179Z,57.39
2022-08-12T01:54:38.637Z,57.39
2022-08-12T01:57:58.732Z,57.28
2022-08-12T02:00:15.075Z,57.71
2022-08-12T02:02:54.901Z,58.55
2022-08-12T02:06:00.146Z,58.79
2022-08-12T02:09:01.586Z,59.31
2022-08-12T02:11:37.490Z,59.02
2022-08-12T02:14:31.643Z,58.46
2022-08-12T02:17:55.093Z,59.44
2022-08-12T02:20:35.106Z,60.66
2022-08-12T02:23:28.161Z,60.47
2022-08-12T02:26:05.828Z,60.08
2022-08-12T02:28:39.573Z,59.81
2022-08-12T02:31:15.064Z,59.05
2022-08-12T02:33:47.837Z,59.00
2022-08-12T02:36:18.202Z,59.70
2022-08-12T02:38:54.913Z,60.57
2022-08-12T02:41:31.057Z,60.30
2022-08-12T02:44:10.321Z,60.05
2022-08-12T02:46:44.875Z,59.85
2022-08-12T02:49:23.705Z,60.02
2022-08-12T02:51:56.257Z,59.64
2022-08-12T02:54:28.542Z,59.88
2022-08-12T02:57:01.710Z,59.51
2022-08-12T02:59:35.581Z,59.93
2022-08-12T03:02:12.082Z,59.76
2022-08-12T03:04:52.053Z,59.84
2022-08-12T03:07:56.355Z,59.45
2022-08-12T03:10:36.932Z,59.56
2022-08-12T03:13:11.009Z,59.68
2022-08-12T03:15:43.584Z,59.48
2022-08-12T03:18:27.161Z,59.20
2022-08-12T03:21:03.021Z,58.98
2022-08-12T03:23:35.229Z,60.03
2022-08-12T03:26:08.318Z,60.18
2022-08-12T03:28:54.212Z,59.83
2022-08-12T03:31:29.032Z,60.87
2022-08-12T03:34:03.674Z,61.23
2022-08-12T03:36:37.559Z,61.66
2022-08-12T03:39:36.174Z,61.16
2022-08-12T03:42:23.426Z,59.85
2022-08-12T03:45:42.058Z,59.34
2022-08-12T03:48:41.958Z,59.64
2022-08-12T03:51:31.685Z,60.01
2022-08-12T03:54:20.987Z,60.01
2022-08-12T03:57:10.448Z,59.30
2022-08-12T04:00:00.383Z,59.28
2022-08-12T04:02:34.647Z,60.07
2022-08-12T04:05:08.869Z,61.03
2022-08-12T04:07:58.131Z,60.22
2022-08-12T04:10:53.735Z,59.85
2022-08-12T04:13:25.532Z,59.86
2022-08-12T04:15:58.646Z,59.14
2022-08-12T04:18:32.878Z,58.25
2022-08-12T04:21:10.325Z,58.12
2022-08-12T04:23:48.375Z,58.32
2022-08-12T04:26:20.487Z,58.82
2022-08-12T04:28:52.325Z,58.70
2022-08-12T04:31:33.057Z,58.47
2022-08-12T04:34:07.242Z,57.96
2022-08-12T04:36:40.788Z,58.27
2022-08-12T04:39:13.778Z,58.98
2022-08-12T04:41:58.131Z,60.29
2022-08-12T04:44:32.433Z,60.78
2022-08-12T04:47:04.341Z,61.06
2022-08-12T04:49:38.280Z,61.34
2022-08-12T04:52:10.300Z,60.36
2022-08-12T04:54:43.956Z,59.40
2022-08-12T04:57:16.005Z,58.33
2022-08-12T04:59:49.027Z,57.56
2022-08-12T05:02:23.014Z,56.08
2022-08-12T05:05:01.148Z,56.56
2022-08-12T05:07:34.107Z,55.63
2022-08-12T05:10:17.981Z,55.82
2022-08-12T05:12:53.821Z,55.51
2022-08-12T05:15:29.363Z,55.78
2022-08-12T05:18:02.153Z,55.05
2022-08-12T05:20:49.291Z,54.24
2022-08-12T05:23:23.190Z,54.24
2022-08-12T05:25:57.229Z,55.39
2022-08-12T05:28:30.538Z,55.60
2022-08-12T05:31:02.455Z,55.20
2022-08-12T05:33:37.467Z,55.10
2022-08-12T05:36:12.596Z,55.08
2022-08-12T05:38:57.198Z,54.68
2022-08-12T05:41:32.503Z,54.78
2022-08-12T05:44:06.658Z,55.32
2022-08-12T05:46:41.085Z,55.46
2022-08-12T05:49:12.824Z,54.55
2022-08-12T05:51:44.743Z,54.27
2022-08-12T05:54:16.563Z,54.58
2022-08-12T05:56:48.527Z,53.65
2022-08-12T05:59:21.705Z,53.85
2022-08-12T06:02:12.215Z,54.55
2022-08-12T06:04:45.278Z,54.82
2022-08-12T06:07:59.710Z,54.83
2022-08-12T06:10:10.118Z,55.07
2022-08-12T06:12:42.411Z,55.06
2022-08-12T06:15:14.764Z,55.27
2022-08-12T06:17:47.245Z,55.27
2022-08-12T06:20:28.645Z,55.37
2022-08-12T06:23:02.595Z,55.53
2022-08-12T06:25:34.849Z,56.73
2022-08-12T06:28:17.482Z,56.56
2022-08-12T06:31:08.298Z,56.82
2022-08-12T06:33:59.557Z,56.23
2022-08-12T06:36:36.053Z,56.42
2022-08-12T06:39:14.896Z,56.99
2022-08-12T06:42:42.197Z,56.35
2022-08-12T06:44:56.410Z,56.57
2022-08-12T06:47:28.127Z,56.88
2022-08-12T06:49:59.816Z,56.76
2022-08-12T06:52:32.328Z,56.27
2022-08-12T06:55:02.555Z,56.29
2022-08-12T06:57:57.297Z,55.95
2022-08-12T07:00:32.548Z,55.54
2022-08-12T07:03:16.613Z,55.05
2022-08-12T07:05:55.929Z,55.30
2022-08-12T07:08:30.036Z,54.95
2022-08-12T07:11:03.898Z,54.64
2022-08-12T07:14:12.410Z,54.08
2022-08-12T07:16:52.202Z,53.66
2022-08-12T07:19:25.129Z,53.23
2022-08-12T07:22:13.916Z,52.85
2022-08-12T07:25:05.650Z,52.62
2022-08-12T07:27:42.707Z,51.82
2022-08-12T07:30:15.552Z,52.74
2022-08-12T07:32:47.580Z,52.72
2022-08-12T07:35:20.369Z,51.67
2022-08-12T07:37:53.249Z,51.23
2022-08-12T07:40:26.406Z,51.18
2022-08-12T07:42:58.607Z,51.68
2022-08-12T07:45:30.474Z,51.55
2022-08-12T07:48:02.376Z,51.43
2022-08-12T07:50:34.152Z,51.00
2022-08-12T07:53:06.098Z,50.69
2022-08-12T07:55:37.931Z,51.23
2022-08-12T07:58:10.145Z,50.88
2022-08-12T08:00:42.110Z,50.54
2022-08-12T08:03:17.092Z,50.18
2022-08-12T08:05:49.675Z,49.87
2022-08-12T08:08:21.536Z,49.18
2022-08-12T08:11:16.804Z,48.91
2022-08-12T08:13:49.294Z,48.80
2022-08-12T08:16:21.050Z,48.80
2022-08-12T08:18:53.324Z,48.64
2022-08-12T08:21:27.225Z,48.25
2022-08-12T08:24:17.449Z,47.66
2022-08-12T08:26:50.908Z,47.21
2022-08-12T08:29:23.920Z,46.90
2022-08-12T08:32:00.133Z,46.74
2022-08-12T08:37:27.731Z,46.50
2022-08-12T08:40:21.252Z,46.50
2022-08-12T08:42:52.953Z,46.29
2022-08-12T08:45:25.054Z,46.39
2022-08-12T08:48:00.277Z,46.37
2022-08-12T08:50:33.362Z,46.18
2022-08-12T08:53:08.746Z,46.33
2022-08-12T08:56:03.613Z,46.24
2022-08-12T08:58:34.378Z,46.21
2022-08-12T09:01:06.543Z,46.25
2022-08-12T09:09:21.972Z,46.22
2022-08-12T09:15:16.811Z,46.04
2022-08-12T09:17:57.147Z,45.66
2022-08-12T09:20:33.677Z,45.63
2022-08-12T09:23:07.994Z,45.34
2022-08-12T09:26:03.990Z,45.34
2022-08-12T09:28:37.853Z,45.16
2022-08-12T09:32:04.064Z,44.88
2022-08-12T09:34:26.693Z,44.76
2022-08-12T09:37:00.676Z,44.69
2022-08-12T09:40:06.444Z,44.66
2022-08-12T09:42:57.704Z,44.42
2022-08-12T09:46:06.500Z,44.25
2022-08-12T09:48:26.769Z,43.66
2022-08-12T09:51:16.708Z,43.48
2022-08-12T09:54:06.837Z,43.26
2022-08-12T09:57:03.210Z,43.65
2022-08-12T10:00:16.001Z,43.20
2022-08-12T10:02:44.405Z,43.20
2022-08-12T10:05:22.731Z,42.89
2022-08-12T10:08:17.457Z,42.33
2022-08-12T10:11:08.353Z,41.82
2022-08-12T10:13:52.783Z,41.27
2022-08-12T10:16:28.387Z,40.96
2022-08-12T10:19:01.942Z,41.36
2022-08-12T10:21:37.638Z,41.24
2022-08-12T10:24:11.778Z,40.84
2022-08-12T10:27:05.871Z,40.70
2022-08-12T10:30:38.783Z,40.46
2022-08-12T10:32:43.673Z,40.49
2022-08-12T10:35:18.915Z,40.62
2022-08-12T10:38:39.284Z,40.37
2022-08-12T10:40:56.271Z,40.84
2022-08-12T10:43:55.820Z,40.98
2022-08-12T10:46:30.993Z,40.73
2022-08-12T10:49:06.574Z,40.67
2022-08-12T10:52:33.367Z,40.06
2022-08-12T10:54:50.903Z,39.72
2022-08-12T10:58:14.974Z,40.13
2022-08-12T11:00:35.980Z,40.60
2022-08-12T11:04:31.669Z,41.14
2022-08-12T11:07:05.911Z,41.59
2022-08-12T11:08:54.738Z,41.78
2022-08-12T11:12:35.968Z,41.70
2022-08-12T11:14:50.205Z,41.01
2022-08-12T11:17:43.806Z,40.45
2022-08-12T11:20:15.124Z,39.99
2022-08-12T11:22:59.148Z,39.75
2022-08-12T11:25:56.429Z,39.34
2022-08-12T11:28:34.602Z,39.05
2022-08-12T11:31:14.163Z,38.79
2022-08-12T11:34:05.425Z,38.45
2022-08-12T11:36:53.515Z,38.58
2022-08-12T11:42:17.946Z,38.74
2022-08-12T11:45:03.974Z,38.83
2022-08-12T11:47:40.253Z,38.70
2022-08-12T11:50:19.460Z,38.65
2022-08-12T11:52:56.048Z,38.77
2022-08-12T11:55:33.106Z,38.49
2022-08-12T11:58:44.055Z,38.49
2022-08-12T12:03:48.277Z,38.46
2022-08-12T12:06:22.580Z,38.63
2022-08-12T12:08:54.848Z,38.38
2022-08-12T12:11:26.947Z,38.49
2022-08-12T12:14:18.738Z,38.91
2022-08-12T12:17:09.765Z,39.13
2022-08-12T12:19:46.340Z,39.38
2022-08-12T12:22:23.749Z,39.16
2022-08-12T12:25:13.779Z,38.49
2022-08-12T12:28:05.773Z,38.14
2022-08-12T12:30:37.732Z,37.83
2022-08-12T12:33:17.708Z,37.84
2022-08-12T12:36:19.689Z,38.26
2022-08-12T12:38:41.825Z,38.91
2022-08-12T12:41:16.463Z,39.29
2022-08-12T12:44:04.261Z,39.11
2022-08-12T12:46:36.749Z,38.82
2022-08-12T12:49:10.900Z,38.68
2022-08-12T12:52:01.958Z,38.65
2022-08-12T12:54:35.057Z,38.36
2022-08-12T12:57:07.154Z,38.11
2022-08-12T13:00:00.326Z,37.70
2022-08-12T13:02:42.341Z,37.15
2022-08-12T13:05:14.327Z,37.70
2022-08-12T13:07:48.942Z,38.08
2022-08-12T13:10:30.701Z,38.20
2022-08-12T13:14:07.631Z,38.37
2022-08-12T13:16:01.888Z,38.24
2022-08-12T13:18:37.340Z,38.29
2022-08-12T13:21:15.693Z,38.52
2022-08-12T13:24:09.706Z,39.01
2022-08-12T13:26:45.990Z,39.19
2022-08-12T13:29:18.672Z,39.30
2022-08-12T13:32:18.978Z,39.39
2022-08-12T13:34:42.814Z,39.73
2022-08-12T13:37:15.335Z,40.00
2022-08-12T13:39:47.428Z,39.84
2022-08-12T13:42:22.922Z,40.38
2022-08-12T13:44:54.680Z,40.29
2022-08-12T13:47:27.028Z,40.46
2022-08-12T13:50:00.437Z,40.33
2022-08-12T13:52:32.106Z,40.59
2022-08-12T13:55:06.352Z,40.61
2022-08-12T13:57:46.986Z,40.77
2022-08-12T14:00:19.484Z,40.98
2022-08-12T14:02:53.297Z,40.98
2022-08-12T14:05:31.110Z,40.80
2022-08-12T14:08:11.849Z,40.50
2022-08-12T14:10:52.024Z,40.21
2022-08-12T14:14:04.341Z,39.58
2022-08-12T14:16:32.341Z,39.32
2022-08-12T14:19:22.125Z,38.97
2022-08-12T14:22:01.505Z,38.66
2022-08-12T14:24:40.690Z,38.70
2022-08-12T14:27:38.139Z,38.97
2022-08-12T14:30:15.553Z,38.79
2022-08-12T14:32:48.799Z,38.41
2022-08-12T14:35:21.662Z,38.48
2022-08-12T14:37:59.084Z,38.72
2022-08-12T14:40:32.141Z,38.65
2022-08-12T14:43:06.245Z,38.57
2022-08-12T14:45:46.827Z,38.33
2022-08-12T14:48:24.524Z,37.90
2022-08-12T14:52:10.811Z,37.76
2022-08-12T14:55:10.878Z,37.50
2022-08-12T14:59:58.126Z,37.02
2022-08-12T15:02:30.801Z,37.65
2022-08-12T15:05:03.813Z,37.99
2022-08-12T15:07:49.549Z,38.06
2022-08-12T15:10:31.354Z,37.86
2022-08-12T15:13:07.878Z,38.14
2022-08-12T15:15:44.243Z,38.38
2022-08-12T15:18:22.787Z,38.68
2022-08-12T15:21:00.143Z,38.61
2022-08-12T15:23:54.830Z,38.64
2022-08-12T15:26:35.742Z,38.59
2022-08-12T15:29:08.035Z,38.82
2022-08-12T15:32:01.773Z,38.93
2022-08-12T15:34:33.364Z,38.49
2022-08-12T15:37:05.655Z,38.32
2022-08-12T15:39:41.200Z,38.12
2022-08-12T15:42:34.209Z,38.07
2022-08-12T15:45:08.584Z,38.00
2022-08-12T15:47:49.928Z,38.19
2022-08-12T15:50:26.623Z,38.58
2022-08-12T15:53:14.687Z,38.89
2022-08-12T15:55:49.257Z,38.92
2022-08-12T15:58:27.393Z,38.63
2022-08-12T16:01:06.807Z,38.41
2022-08-12T16:03:45.498Z,38.43
2022-08-12T16:07:00.771Z,38.41
2022-08-12T16:09:55.933Z,38.60
2022-08-12T16:12:15.872Z,38.31
2022-08-12T16:14:55.018Z,38.22
2022-08-12T16:18:15.436Z,37.75
2022-08-12T16:20:22.168Z,37.88
2022-08-12T16:23:50.999Z,38.33
2022-08-12T16:26:06.258Z,38.53
2022-08-12T16:28:48.068Z,38.70
2022-08-12T16:31:23.166Z,38.67
2022-08-12T16:33:58.720Z,38.60
2022-08-12T16:36:32.916Z,38.59
2022-08-12T16:39:04.746Z,38.98
2022-08-12T16:41:39.747Z,39.44
2022-08-12T16:44:12.737Z,39.78
2022-08-12T16:46:57.953Z,40.24
2022-08-12T16:49:38.539Z,40.70
2022-08-12T16:52:16.421Z,40.77
2022-08-12T16:54:48.597Z,40.85
2022-08-12T16:57:34.677Z,41.13
2022-08-12T17:00:11.488Z,41.22
2022-08-12T17:02:54.817Z,41.33
2022-08-12T17:05:31.256Z,41.64
2022-08-12T17:08:03.510Z,41.86
2022-08-12T17:10:36.038Z,42.21
2022-08-12T17:13:10.796Z,42.36
2022-08-12T17:15:57.325Z,42.59
2022-08-12T17:18:44.189Z,42.93
2022-08-12T17:21:41.069Z,42.82
2022-08-12T17:24:30.580Z,42.81
2022-08-12T17:27:08.983Z,42.94
2022-08-12T17:30:00.944Z,43.33
2022-08-12T17:32:37.176Z,43.29
2022-08-12T17:35:37.445Z,43.51
2022-08-12T17:38:15.231Z,44.50
2022-08-12T17:40:49.551Z,45.19
2022-08-12T17:43:55.734Z,45.06
2022-08-12T17:46:24.163Z,45.43
2022-08-12T17:49:06.540Z,45.55
2022-08-12T17:52:02.751Z,46.32
2022-08-12T17:54:37.722Z,46.64
2022-08-12T17:57:16.050Z,47.11
2022-08-12T17:59:49.647Z,47.75
2022-08-12T18:02:30.847Z,47.41
2022-08-12T18:05:09.381Z,47.82
2022-08-12T18:07:44.007Z,47.81
2022-08-12T18:10:42.899Z,46.88
2022-08-12T18:13:40.898Z,46.96
2022-08-12T18:16:12.651Z,47.23
2022-08-12T18:18:44.745Z,47.46
2022-08-12T18:21:20.643Z,47.17
2022-08-12T18:23:54.593Z,47.45
2022-08-12T18:26:27.532Z,47.65
2022-08-12T18:28:59.760Z,48.07
2022-08-12T18:31:44.721Z,48.76
2022-08-12T18:34:27.905Z,49.34
2022-08-12T18:37:26.621Z,50.92
2022-08-12T18:40:11.847Z,51.28
2022-08-12T18:42:54.397Z,50.10
2022-08-12T18:45:31.610Z,49.78
2022-08-12T18:48:21.022Z,51.10
2022-08-12T18:51:06.372Z,51.04
2022-08-12T18:54:06.368Z,49.96
2022-08-12T18:56:36.907Z,50.41
2022-08-12T18:59:10.372Z,51.28
2022-08-12T19:02:19.277Z,50.15
2022-08-12T19:04:38.060Z,50.65
2022-08-12T19:07:20.071Z,50.92
2022-08-12T19:09:57.836Z,51.77
2022-08-12T19:12:57.550Z,51.53
2022-08-12T19:15:31.698Z,52.04
2022-08-12T19:18:13.410Z,51.49
2022-08-12T19:20:48.045Z,51.97
2022-08-12T19:23:22.332Z,53.77
2022-08-12T19:26:00.079Z,52.88
2022-08-12T19:28:36.515Z,52.43
2022-08-12T19:31:56.565Z,52.94
2022-08-12T19:38:04.465Z,54.03
2022-08-12T19:40:31.496Z,53.13
2022-08-12T19:43:18.950Z,54.23
2022-08-12T19:45:56.619Z,55.42
2022-08-12T19:48:30.477Z,55.99
2022-08-12T19:51:09.225Z,56.05
2022-08-12T19:53:57.816Z,56.57
2022-08-12T19:56:32.375Z,56.06
2022-08-12T19:59:21.612Z,55.44
2022-08-12T20:02:02.456Z,54.75
2022-08-12T20:04:38.421Z,55.26
2022-08-12T20:07:24.280Z,56.13
2022-08-12T20:09:59.093Z,55.92
2022-08-12T20:12:32.894Z,54.94
2022-08-12T20:15:10.189Z,56.33
2022-08-12T20:17:50.845Z,55.62
2022-08-12T20:20:27.817Z,56.08
2022-08-12T20:23:00.603Z,55.54
2022-08-12T20:25:52.853Z,57.05
2022-08-12T20:28:29.725Z,56.80
2022-08-12T20:31:03.529Z,56.82
2022-08-12T20:33:50.722Z,56.68
2022-08-12T20:36:40.642Z,57.02
2022-08-12T20:39:37.338Z,56.49
2022-08-12T20:42:09.690Z,56.75
2022-08-12T20:44:42.553Z,57.25
2022-08-12T20:47:19.609Z,57.47
2022-08-12T20:49:55.874Z,57.33
2022-08-12T20:52:35.004Z,56.79
2022-08-12T20:55:15.549Z,57.12
2022-08-12T20:58:02.715Z,59.31
2022-08-12T21:00:36.824Z,59.16
2022-08-12T21:03:28.236Z,58.88
2022-08-12T21:06:21.311Z,57.70
2022-08-12T21:09:00.080Z,58.13
2022-08-12T21:11:32.709Z,58.50
2022-08-12T21:14:06.028Z,58.66
2022-08-12T21:16:45.022Z,58.71
2022-08-12T21:19:51.814Z,59.10
2022-08-12T21:22:24.688Z,58.75
2022-08-12T21:24:56.753Z,58.94
2022-08-12T21:27:58.933Z,58.81
2022-08-12T21:30:23.433Z,58.59
2022-08-12T21:33:10.659Z,59.08
2022-08-12T21:35:50.530Z,59.54
2022-08-12T21:38:24.757Z,59.67
2022-08-12T21:41:06.812Z,59.54
2022-08-12T21:43:44.785Z,59.31
2022-08-12T21:46:34.669Z,59.50
2022-08-12T21:49:09.475Z,59.04
2022-08-12T21:51:49.360Z,59.31
2022-08-12T21:54:24.140Z,59.24
2022-08-12T21:56:59.757Z,59.89
2022-08-12T21:59:31.401Z,59.93
2022-08-12T22:02:03.158Z,59.58
2022-08-12T22:04:58.490Z,59.27
2022-08-12T22:07:30.295Z,59.07
2022-08-12T22:10:20.642Z,59.17
2022-08-12T22:13:01.274Z,59.32
2022-08-12T22:15:32.899Z,59.15
2022-08-12T22:18:07.417Z,59.27
2022-08-12T22:20:41.126Z,59.22
2022-08-12T22:23:21.719Z,59.01
2022-08-12T22:26:00.341Z,59.55
2022-08-12T22:28:49.689Z,59.60
2022-08-12T22:31:22.201Z,59.80
2022-08-12T22:33:59.579Z,60.65
2022-08-12T22:36:31.950Z,60.55
2022-08-12T22:39:11.671Z,60.92
2022-08-12T22:42:04.133Z,60.79
2022-08-12T22:44:54.707Z,61.34
2022-08-12T22:47:54.554Z,60.92
2022-08-12T22:50:29.461Z,61.01
2022-08-12T22:53:16.452Z,60.95
2022-08-12T22:56:00.522Z,60.85
2022-08-12T22:58:41.649Z,60.69
2022-08-12T23:01:21.223Z,60.27
2022-08-12T23:04:15.405Z,60.50
2022-08-12T23:07:05.520Z,60.62
2022-08-12T23:09:48.371Z,60.10
2022-08-12T23:12:35.040Z,60.08
2022-08-12T23:15:13.241Z,60.24
2022-08-12T23:17:45.821Z,59.59
2022-08-12T23:20:18.317Z,60.27
2022-08-12T23:23:03.156Z,60.39
2022-08-12T23:25:54.422Z,60.46
2022-08-12T23:28:45.027Z,60.79
2022-08-12T23:31:30.373Z,60.01
2022-08-12T23:34:18.191Z,59.83
2022-08-12T23:36:51.509Z,59.89
2022-08-12T23:40:13.976Z,60.06
2022-08-12T23:42:17.610Z,59.65
2022-08-12T23:44:53.311Z,59.79
2022-08-12T23:47:24.979Z,59.89
2022-08-12T23:50:03.170Z,60.03
2022-08-12T23:52:41.485Z,60.19
2022-08-12T23:55:25.150Z,60.44
2022-08-12T23:58:22.582Z,60.94
